createdAt,value
2022-10-28T00:01:26.944Z,101138.98
2022-10-28T00:03:57.071Z,101136.58
2022-10-28T00:06:33.911Z,101135.73
2022-10-28T00:09:08.337Z,101138.35
2022-10-28T00:11:39.521Z,101139.11
2022-10-28T00:14:08.192Z,101136.84
2022-10-28T00:16:37.873Z,101137.30
2022-10-28T00:19:10.545Z,101134.08
2022-10-28T00:21:40.391Z,101138.66
2022-10-28T00:24:10.188Z,101134.80
2022-10-28T00:26:41.517Z,101138.64
2022-10-28T00:29:12.412Z,101136.66
2022-10-28T00:31:41.435Z,101121.60
2022-10-28T00:34:18.303Z,101119.39
2022-10-28T00:36:48.379Z,101110.02
2022-10-28T00:39:21.802Z,101106.70
2022-10-28T00:41:55.468Z,101102.00
2022-10-28T00:44:51.425Z,101108.71
2022-10-28T00:47:37.529Z,101110.34
2022-10-28T00:50:24.043Z,101104.61
2022-10-28T00:52:56.480Z,101101.64
2022-10-28T00:55:26.011Z,101103.10
2022-10-28T00:57:56.761Z,101099.61
2022-10-28T01:03:19.086Z,101098.14
2022-10-28T01:05:49.379Z,101092.77
2022-10-28T01:08:17.835Z,101088.92
2022-10-28T01:11:14.293Z,101090.77
2022-10-28T01:14:04.685Z,101088.11
2022-10-28T01:16:37.583Z,101088.67
2022-10-28T01:20:00.300Z,101084.52
2022-10-28T01:22:57.267Z,101078.58
2022-10-28T01:25:45.213Z,101078.07
2022-10-28T01:28:28.162Z,101078.45
2022-10-28T01:31:15.263Z,101075.70
2022-10-28T01:33:51.342Z,101076.66
2022-10-28T01:36:32.129Z,101072.88
2022-10-28T01:39:20.219Z,101070.66
2022-10-28T01:42:00.012Z,101065.13
2022-10-28T01:45:01.530Z,101064.80
2022-10-28T01:47:36.542Z,101063.10
2022-10-28T01:50:09.799Z,101055.45
2022-10-28T01:52:40.502Z,101049.02
2022-10-28T01:55:15.901Z,101044.11
2022-10-28T01:57:44.100Z,101042.92
2022-10-28T02:00:12.855Z,101040.17
2022-10-28T02:02:42.778Z,101038.45
2022-10-28T02:05:39.544Z,101038.29
2022-10-28T02:08:19.905Z,101036.50
2022-10-28T02:11:09.111Z,101039.45
2022-10-28T02:13:53.631Z,101041.35
2022-10-28T02:16:49.218Z,101032.59
2022-10-28T02:19:29.010Z,101036.59
2022-10-28T02:21:59.572Z,101031.32
2022-10-28T02:24:39.642Z,101031.48
2022-10-28T02:27:34.440Z,101028.52
2022-10-28T02:30:05.255Z,101036.54
2022-10-28T02:32:38.983Z,101041.89
2022-10-28T02:35:17.289Z,101044.18
2022-10-28T02:37:48.486Z,101039.98
2022-10-28T02:40:21.865Z,101041.15
2022-10-28T02:42:55.281Z,101033.23
2022-10-28T02:45:29.990Z,101035.30
2022-10-28T02:48:02.311Z,101030.55
2022-10-28T02:50:45.325Z,101031.21
2022-10-28T02:53:21.251Z,101024.52
2022-10-28T02:55:54.332Z,101025.52
2022-10-28T02:58:22.714Z,101028.99
2022-10-28T03:00:50.925Z,101028.98
2022-10-28T03:03:18.625Z,101031.25
2022-10-28T03:05:46.717Z,101037.30
2022-10-28T03:08:14.587Z,101038.13
2022-10-28T03:10:42.165Z,101036.69
2022-10-28T03:13:10.500Z,101036.42
2022-10-28T03:15:38.255Z,101030.25
2022-10-28T03:18:05.982Z,101025.32
2022-10-28T03:20:33.856Z,101024.41
2022-10-28T03:23:02.454Z,101020.52
2022-10-28T03:25:30.179Z,101019.80
2022-10-28T03:27:58.138Z,101019.15
2022-10-28T03:30:25.958Z,101019.14
2022-10-28T03:32:54.046Z,101019.96
2022-10-28T03:35:22.130Z,101018.73
2022-10-28T03:37:49.959Z,101021.50
2022-10-28T03:40:17.574Z,101020.61
2022-10-28T03:42:45.912Z,101019.38
2022-10-28T03:45:13.806Z,101012.17
2022-10-28T03:47:42.792Z,101011.70
2022-10-28T03:50:10.847Z,101010.27
2022-10-28T03:52:38.656Z,101013.25
2022-10-28T03:55:06.618Z,101009.52
2022-10-28T03:57:34.510Z,101010.96
2022-10-28T04:00:02.583Z,101016.91
2022-10-28T04:02:39.696Z,101013.77
2022-10-28T04:05:07.862Z,101012.73
2022-10-28T04:07:35.764Z,101009.75
2022-10-28T04:10:03.962Z,101010.77
2022-10-28T04:12:31.706Z,101013.01
2022-10-28T04:14:59.347Z,101016.16
2022-10-28T04:17:27.394Z,101015.17
2022-10-28T04:19:55.344Z,101016.74
2022-10-28T04:22:22.998Z,101013.63
2022-10-28T04:24:51.199Z,101007.19
2022-10-28T04:27:18.991Z,101007.21
2022-10-28T04:29:46.776Z,101000.27
2022-10-28T04:32:14.757Z,100998.27
2022-10-28T04:34:42.621Z,100993.17
2022-10-28T04:37:10.207Z,100988.63
2022-10-28T04:39:38.023Z,100987.60
2022-10-28T04:42:05.894Z,100984.58
2022-10-28T04:44:33.533Z,100981.20
2022-10-28T04:47:01.418Z,100979.73
2022-10-28T04:49:29.326Z,100985.15
2022-10-28T04:51:56.936Z,100981.11
2022-10-28T04:54:25.055Z,100976.48
2022-10-28T04:56:54.524Z,100973.89
2022-10-28T04:59:22.187Z,100977.16
2022-10-28T05:01:49.978Z,100981.02
2022-10-28T05:04:17.920Z,100985.80
2022-10-28T05:06:45.898Z,100987.73
2022-10-28T05:09:13.938Z,100987.59
2022-10-28T05:11:41.720Z,100982.04
2022-10-28T05:14:09.424Z,100977.67
2022-10-28T05:16:37.204Z,100976.14
2022-10-28T05:19:05.141Z,100978.98
2022-10-28T05:21:33.331Z,100978.27
2022-10-28T05:24:01.163Z,100977.04
2022-10-28T05:26:29.044Z,100972.15
2022-10-28T05:28:56.890Z,100974.80
2022-10-28T05:31:24.955Z,100974.02
2022-10-28T05:33:52.807Z,100977.02
2022-10-28T05:36:20.890Z,100978.77
2022-10-28T05:38:49.919Z,100979.10
2022-10-28T05:41:17.806Z,100982.61
2022-10-28T05:43:45.516Z,100981.74
2022-10-28T05:46:13.727Z,100979.95
2022-10-28T05:48:41.439Z,100976.14
2022-10-28T05:51:09.103Z,100974.04
2022-10-28T05:53:36.879Z,100969.34
2022-10-28T05:56:04.863Z,100966.09
2022-10-28T05:58:32.986Z,100968.98
2022-10-28T06:01:01.016Z,100970.98
2022-10-28T06:03:31.200Z,100974.30
2022-10-28T06:05:59.568Z,100970.31
2022-10-28T06:08:28.989Z,100967.59
2022-10-28T06:10:55.528Z,100967.67
2022-10-28T06:13:23.288Z,100964.36
2022-10-28T06:15:56.105Z,100962.73
2022-10-28T06:18:24.080Z,100963.69
2022-10-28T06:20:53.652Z,100963.80
2022-10-28T06:23:22.589Z,100959.95
2022-10-28T06:25:50.631Z,100966.34
2022-10-28T06:28:18.318Z,100973.77
2022-10-28T06:30:46.225Z,100976.48
2022-10-28T06:33:14.245Z,100969.30
2022-10-28T06:35:42.168Z,100971.64
2022-10-28T06:38:09.911Z,100978.70
2022-10-28T06:40:37.799Z,100981.48
2022-10-28T06:43:06.930Z,100986.33
2022-10-28T06:45:34.809Z,100983.23
2022-10-28T06:48:06.553Z,100982.00
2022-10-28T06:50:35.990Z,100989.53
2022-10-28T06:53:04.792Z,100995.98
2022-10-28T06:55:32.734Z,100996.52
2022-10-28T06:58:03.276Z,100990.26
2022-10-28T07:00:37.132Z,100987.11
2022-10-28T07:03:06.390Z,100977.98
2022-10-28T07:05:34.280Z,100978.55
2022-10-28T07:08:02.156Z,100985.98
2022-10-28T07:10:30.198Z,100987.64
2022-10-28T07:12:58.135Z,100986.32
2022-10-28T07:15:26.263Z,100990.28
2022-10-28T07:17:58.484Z,100987.23
2022-10-28T07:20:28.213Z,100983.41
2022-10-28T07:23:00.911Z,100983.02
2022-10-28T07:25:31.093Z,100979.21
2022-10-28T07:28:00.889Z,100976.60
2022-10-28T07:30:29.452Z,100980.95
2022-10-28T07:33:01.332Z,100986.59
2022-10-28T07:35:29.566Z,100990.36
2022-10-28T07:37:58.482Z,100990.77
2022-10-28T07:40:26.864Z,100993.61
2022-10-28T07:42:55.303Z,100995.86
2022-10-28T07:45:23.235Z,100997.14
2022-10-28T07:47:51.385Z,100997.38
2022-10-28T07:50:19.542Z,101000.38
2022-10-28T07:52:47.358Z,101004.13
2022-10-28T07:55:15.810Z,101000.90
2022-10-28T07:57:43.540Z,100997.71
2022-10-28T08:00:11.676Z,100995.53
2022-10-28T08:02:40.289Z,100993.29
2022-10-28T08:05:08.323Z,100993.98
2022-10-28T08:07:38.679Z,100986.80
2022-10-28T08:10:07.222Z,100980.44
2022-10-28T08:12:34.993Z,100982.17
2022-10-28T08:15:03.016Z,100983.99
2022-10-28T08:17:31.101Z,100984.69
2022-10-28T08:19:58.993Z,100978.00
2022-10-28T08:22:27.227Z,100968.35
2022-10-28T08:24:55.188Z,100958.05
2022-10-28T08:27:23.428Z,100958.52
2022-10-28T08:29:53.419Z,100962.02
2022-10-28T08:32:21.292Z,100962.00
2022-10-28T08:34:49.122Z,100960.48
2022-10-28T08:37:16.938Z,100962.21
2022-10-28T08:39:44.772Z,100963.45
2022-10-28T08:42:34.726Z,100965.05
2022-10-28T08:45:24.034Z,100967.52
2022-10-28T08:48:03.844Z,100968.55
2022-10-28T08:50:34.841Z,100971.88
2022-10-28T08:53:55.101Z,100975.92
2022-10-28T08:56:31.657Z,100974.67
2022-10-28T08:59:01.471Z,100978.29
2022-10-28T09:01:46.137Z,100978.28
2022-10-28T09:04:32.387Z,100973.95
2022-10-28T09:07:01.922Z,100971.84
2022-10-28T09:09:30.574Z,100975.81
2022-10-28T09:12:17.119Z,100972.16
2022-10-28T09:15:18.029Z,100968.84
2022-10-28T09:17:55.405Z,100967.69
2022-10-28T09:20:34.040Z,100966.23
2022-10-28T09:23:33.864Z,100963.02
2022-10-28T09:26:24.564Z,100969.95
2022-10-28T09:29:26.589Z,100968.23
2022-10-28T09:32:01.626Z,100961.66
2022-10-28T09:34:43.944Z,100960.55
2022-10-28T09:37:28.066Z,100956.09
2022-10-28T09:40:27.400Z,100959.33
2022-10-28T09:43:02.055Z,100961.34
2022-10-28T09:45:32.630Z,100959.20
2022-10-28T09:48:14.554Z,100961.42
2022-10-28T09:50:42.727Z,100963.91
2022-10-28T09:53:59.538Z,100966.00
2022-10-28T09:56:29.945Z,100961.92
2022-10-28T09:59:01.283Z,100956.26
2022-10-28T10:01:49.139Z,100952.77
2022-10-28T10:04:35.788Z,100946.65
2022-10-28T10:07:09.910Z,100943.61
2022-10-28T10:09:57.214Z,100946.30
2022-10-28T10:12:26.774Z,100946.48
2022-10-28T10:15:19.176Z,100947.88
2022-10-28T10:17:48.028Z,100946.36
2022-10-28T10:20:17.668Z,100942.81
2022-10-28T10:23:22.585Z,100944.37
2022-10-28T10:26:12.510Z,100940.30
2022-10-28T10:28:51.578Z,100936.84
2022-10-28T10:31:26.904Z,100935.16
2022-10-28T10:33:58.023Z,100931.37
2022-10-28T10:36:31.594Z,100936.23
2022-10-28T10:39:02.113Z,100936.15
2022-10-28T10:41:47.341Z,100932.09
2022-10-28T10:44:20.908Z,100927.73
2022-10-28T10:47:05.792Z,100925.85
2022-10-28T10:49:35.814Z,100922.09
2022-10-28T10:52:28.445Z,100920.72
2022-10-28T10:55:03.050Z,100921.20
2022-10-28T10:57:33.510Z,100924.94
2022-10-28T11:00:01.374Z,100928.23
2022-10-28T11:02:36.260Z,100927.07
2022-10-28T11:05:08.429Z,100924.92
2022-10-28T11:07:39.999Z,100920.77
2022-10-28T11:10:25.130Z,100918.35
2022-10-28T11:12:58.862Z,100916.60
2022-10-28T11:15:30.197Z,100909.73
2022-10-28T11:18:21.052Z,100905.23
2022-10-28T11:20:57.803Z,100898.62
2022-10-28T11:23:49.134Z,100899.50
2022-10-28T11:26:21.518Z,100896.31
2022-10-28T11:29:17.751Z,100890.70
2022-10-28T11:32:05.543Z,100885.47
2022-10-28T11:34:57.846Z,100882.20
2022-10-28T11:37:45.209Z,100881.33
2022-10-28T11:40:50.287Z,100882.27
2022-10-28T11:43:34.559Z,100879.61
2022-10-28T11:46:24.062Z,100880.72
2022-10-28T11:49:20.890Z,100877.21
2022-10-28T11:52:01.049Z,100873.27
2022-10-28T11:54:53.777Z,100871.81
2022-10-28T11:57:38.423Z,100868.42
2022-10-28T12:00:20.887Z,100865.08
2022-10-28T12:03:10.091Z,100859.55
2022-10-28T12:05:50.436Z,100855.63
2022-10-28T12:08:52.775Z,100851.64
2022-10-28T12:11:57.589Z,100855.48
2022-10-28T12:14:46.699Z,100851.14
2022-10-28T12:17:29.770Z,100846.33
2022-10-28T12:20:03.517Z,100839.05
2022-10-28T12:22:53.175Z,100840.77
2022-10-28T12:25:29.180Z,100839.49
2022-10-28T12:28:23.184Z,100834.98
2022-10-28T12:31:18.464Z,100832.81
2022-10-28T12:33:49.846Z,100831.52
2022-10-28T12:36:41.962Z,100823.77
2022-10-28T12:39:17.467Z,100819.84
2022-10-28T12:42:22.737Z,100824.04
2022-10-28T12:44:57.070Z,100818.77
2022-10-28T12:47:43.552Z,100818.84
2022-10-28T12:50:45.886Z,100816.71
2022-10-28T12:53:44.725Z,100814.83
2022-10-28T12:56:20.012Z,100811.17
2022-10-28T12:59:06.694Z,100809.40
2022-10-28T13:01:35.322Z,100809.66
2022-10-28T13:04:04.016Z,100806.27
2022-10-28T13:06:51.755Z,100804.31
2022-10-28T13:09:37.946Z,100808.06
2022-10-28T13:12:16.026Z,100803.77
2022-10-28T13:15:30.776Z,100801.09
2022-10-28T13:18:35.501Z,100800.70
2022-10-28T13:21:23.948Z,100801.02
2022-10-28T13:24:34.283Z,100791.23
2022-10-28T13:27:04.984Z,100788.56
2022-10-28T13:29:35.098Z,100786.02
2022-10-28T13:32:40.822Z,100788.41
2022-10-28T13:35:35.983Z,100777.84
2022-10-28T13:38:10.931Z,100772.13
2022-10-28T13:40:38.738Z,100770.78
2022-10-28T13:43:20.753Z,100770.02
2022-10-28T13:46:06.231Z,100774.07
2022-10-28T13:48:43.126Z,100778.19
2022-10-28T13:51:10.867Z,100777.16
2022-10-28T13:53:45.256Z,100778.59
2022-10-28T13:56:27.660Z,100774.44
2022-10-28T13:59:03.566Z,100775.73
2022-10-28T14:01:56.757Z,100770.93
2022-10-28T14:04:38.618Z,100772.33
2022-10-28T14:07:21.815Z,100771.59
2022-10-28T14:09:52.768Z,100774.10
2022-10-28T14:12:32.765Z,100772.08
2022-10-28T14:15:15.479Z,100772.38
2022-10-28T14:17:49.276Z,100773.83
2022-10-28T14:20:41.865Z,100771.79
2022-10-28T14:23:27.558Z,100771.27
2022-10-28T14:25:56.133Z,100775.90
2022-10-28T14:28:41.640Z,100773.66
2022-10-28T14:31:39.278Z,100771.84
2022-10-28T14:34:13.143Z,100772.13
2022-10-28T14:36:58.727Z,100772.08
2022-10-28T14:39:41.111Z,100774.26
2022-10-28T14:42:27.176Z,100767.73
2022-10-28T14:45:20.683Z,100766.67
2022-10-28T14:48:21.483Z,100765.83
2022-10-28T14:50:52.504Z,100773.58
2022-10-28T14:53:27.948Z,100769.95
2022-10-28T14:56:24.541Z,100763.51
2022-10-28T14:58:54.966Z,100761.92
2022-10-28T15:01:59.181Z,100765.44
2022-10-28T15:04:28.717Z,100764.71
2022-10-28T15:06:56.977Z,100763.66
2022-10-28T15:09:44.156Z,100762.34
2022-10-28T15:12:16.821Z,100756.70
2022-10-28T15:14:52.940Z,100759.77
2022-10-28T15:17:42.555Z,100753.41
2022-10-28T15:20:31.969Z,100752.36
2022-10-28T15:23:20.519Z,100755.91
2022-10-28T15:26:08.271Z,100758.06
2022-10-28T15:28:37.252Z,100758.98
2022-10-28T15:31:05.270Z,100756.14
2022-10-28T15:33:40.140Z,100759.34
2022-10-28T15:36:23.457Z,100760.11
2022-10-28T15:39:07.267Z,100765.38
2022-10-28T15:41:49.268Z,100766.27
2022-10-28T15:44:38.115Z,100766.98
2022-10-28T15:47:24.727Z,100766.42
2022-10-28T15:50:16.695Z,100769.67
2022-10-28T15:52:48.142Z,100770.46
2022-10-28T15:58:41.428Z,100767.27
2022-10-28T16:01:35.697Z,100766.00
2022-10-28T16:04:05.765Z,100759.45
2022-10-28T16:06:56.916Z,100760.99
2022-10-28T16:09:29.626Z,100759.10
2022-10-28T16:12:01.832Z,100756.96
2022-10-28T16:14:39.703Z,100763.41
2022-10-28T16:17:15.669Z,100770.30
2022-10-28T16:19:56.993Z,100764.23
2022-10-28T16:22:27.376Z,100763.17
2022-10-28T16:24:58.152Z,100760.88
2022-10-28T16:27:28.648Z,100761.09
2022-10-28T16:29:56.837Z,100758.63
2022-10-28T16:32:47.271Z,100762.96
2022-10-28T16:35:20.386Z,100767.30
2022-10-28T16:37:53.763Z,100770.96
2022-10-28T16:43:16.794Z,100779.95
2022-10-28T16:45:44.646Z,100777.18
2022-10-28T16:48:13.908Z,100779.74
2022-10-28T16:50:45.130Z,100782.10
2022-10-28T16:53:30.803Z,100780.25
2022-10-28T16:56:01.824Z,100782.39
2022-10-28T16:58:30.141Z,100784.17
2022-10-28T17:01:19.941Z,100780.05
2022-10-28T17:03:47.814Z,100775.70
2022-10-28T17:06:15.407Z,100770.60
2022-10-28T17:09:01.792Z,100766.45
2022-10-28T17:14:21.374Z,100768.73
2022-10-28T17:17:06.695Z,100773.91
2022-10-28T17:19:52.260Z,100781.57
2022-10-28T17:22:20.024Z,100786.76
2022-10-28T17:24:47.630Z,100785.56
2022-10-28T17:27:15.468Z,100785.29
2022-10-28T17:29:43.289Z,100782.62
2022-10-28T17:32:10.944Z,100784.66
2022-10-28T17:34:56.775Z,100782.73
2022-10-28T17:37:24.788Z,100781.02
2022-10-28T17:39:52.522Z,100778.83
2022-10-28T17:42:20.795Z,100778.17
2022-10-28T17:44:48.726Z,100773.12
2022-10-28T17:47:16.430Z,100768.77
2022-10-28T17:50:02.307Z,100767.75
2022-10-28T17:52:34.191Z,100772.50
2022-10-28T17:55:06.685Z,100777.45
2022-10-28T17:57:34.751Z,100774.26
2022-10-28T18:00:20.197Z,100768.14
2022-10-28T18:02:48.323Z,100768.36
2022-10-28T18:05:35.974Z,100765.50
2022-10-28T18:08:03.971Z,100768.77
2022-10-28T18:10:57.235Z,100762.83
2022-10-28T18:13:32.982Z,100760.92
2022-10-28T18:16:21.926Z,100757.55
2022-10-28T18:19:09.986Z,100760.73
2022-10-28T18:21:38.175Z,100758.80
2022-10-28T18:24:06.237Z,100758.17
2022-10-28T18:26:35.986Z,100752.81
2022-10-28T18:29:08.248Z,100757.48
2022-10-28T18:31:37.742Z,100760.59
2022-10-28T18:34:05.734Z,100754.51
2022-10-28T18:36:51.941Z,100750.61
2022-10-28T18:39:38.141Z,100756.73
2022-10-28T18:42:24.015Z,100752.47
2022-10-28T18:44:58.373Z,100751.42
2022-10-28T18:47:26.320Z,100747.96
2022-10-28T18:49:54.480Z,100748.52
2022-10-28T18:52:24.712Z,100749.84
2022-10-28T18:54:53.259Z,100746.17
2022-10-28T18:57:22.128Z,100740.16
2022-10-28T19:00:20.117Z,100746.64
2022-10-28T19:02:42.195Z,100747.98
2022-10-28T19:05:14.186Z,100747.88
2022-10-28T19:07:59.307Z,100753.91
2022-10-28T19:10:27.102Z,100746.66
2022-10-28T19:12:54.680Z,100745.78
2022-10-28T19:15:22.674Z,100745.48
2022-10-28T19:17:53.213Z,100743.81
2022-10-28T19:20:20.994Z,100748.59
2022-10-28T19:22:48.928Z,100747.91
2022-10-28T19:25:16.833Z,100748.21
2022-10-28T19:27:44.506Z,100741.55
2022-10-28T19:30:13.697Z,100737.91
2022-10-28T19:32:41.711Z,100734.12
2022-10-28T19:35:09.562Z,100732.44
2022-10-28T19:37:55.294Z,100733.58
2022-10-28T19:40:23.163Z,100735.00
2022-10-28T19:45:26.463Z,100730.00
2022-10-28T19:47:54.332Z,100731.10
2022-10-28T19:50:22.309Z,100733.50
2022-10-28T19:52:50.448Z,100735.02
2022-10-28T19:55:18.575Z,100733.58
2022-10-28T19:57:48.947Z,100736.05
2022-10-28T20:00:37.461Z,100736.10
2022-10-28T20:03:05.321Z,100734.70
2022-10-28T20:05:59.130Z,100735.08
2022-10-28T20:08:27.220Z,100729.57
2022-10-28T20:11:03.815Z,100728.83
2022-10-28T20:13:57.421Z,100728.60
2022-10-28T20:16:25.924Z,100727.55
2022-10-28T20:18:55.231Z,100726.10
2022-10-28T20:21:40.992Z,100726.16
2022-10-28T20:24:09.005Z,100724.29
2022-10-28T20:26:38.714Z,100724.89
2022-10-28T20:29:24.253Z,100724.98
2022-10-28T20:31:52.413Z,100722.77
2022-10-28T20:34:38.042Z,100720.77
2022-10-28T20:37:06.281Z,100720.60
2022-10-28T20:39:33.914Z,100720.65
2022-10-28T20:42:01.604Z,100725.64
2022-10-28T20:44:29.491Z,100725.54
2022-10-28T20:46:57.082Z,100728.03
2022-10-28T20:49:24.974Z,100726.88
2022-10-28T20:51:52.736Z,100728.38
2022-10-28T20:54:20.333Z,100726.02
2022-10-28T20:57:06.025Z,100724.05
2022-10-28T20:59:33.831Z,100727.78
2022-10-28T21:02:01.675Z,100724.61
2022-10-28T21:04:47.534Z,100729.44
2022-10-28T21:07:15.476Z,100726.09
2022-10-28T21:09:43.023Z,100726.45
2022-10-28T21:12:10.891Z,100724.63
2022-10-28T21:14:38.706Z,100726.61
2022-10-28T21:17:24.480Z,100725.42
2022-10-28T21:19:52.345Z,100721.09
2022-10-28T21:22:20.022Z,100719.02
2022-10-28T21:24:47.983Z,100722.42
2022-10-28T21:27:15.852Z,100718.16
2022-10-28T21:30:01.638Z,100714.84
2022-10-28T21:32:29.408Z,100714.20
2022-10-28T21:34:56.998Z,100713.17
2022-10-28T21:37:24.788Z,100714.91
2022-10-28T21:40:10.994Z,100718.70
2022-10-28T21:42:56.494Z,100719.09
2022-10-28T21:45:41.833Z,100716.02
2022-10-28T21:48:10.083Z,100717.04
2022-10-28T21:50:37.657Z,100715.23
2022-10-28T21:53:05.285Z,100715.54
2022-10-28T21:55:45.947Z,100715.83
2022-10-28T21:58:32.652Z,100709.95
2022-10-28T22:01:10.101Z,100708.79
2022-10-28T22:03:38.675Z,100711.02
2022-10-28T22:06:07.379Z,100706.55
2022-10-28T22:08:35.087Z,100705.90
2022-10-28T22:11:05.031Z,100706.57
2022-10-28T22:13:34.343Z,100700.64
2022-10-28T22:16:04.846Z,100704.15
2022-10-28T22:18:50.575Z,100697.63
2022-10-28T22:21:24.321Z,100698.70
2022-10-28T22:23:52.388Z,100701.30
2022-10-28T22:26:22.557Z,100702.55
2022-10-28T22:28:51.012Z,100699.68
2022-10-28T22:31:36.267Z,100705.37
2022-10-28T22:34:05.613Z,100706.06
2022-10-28T22:36:33.270Z,100699.02
2022-10-28T22:39:01.086Z,100700.32
2022-10-28T22:41:31.431Z,100701.83
2022-10-28T22:44:02.609Z,100707.55
2022-10-28T22:46:36.849Z,100703.69
2022-10-28T22:49:04.686Z,100700.96
2022-10-28T22:51:33.197Z,100704.08
2022-10-28T22:54:01.063Z,100704.81
2022-10-28T22:56:28.930Z,100705.33
2022-10-28T22:59:14.031Z,100697.41
2022-10-28T23:01:41.807Z,100702.96
2022-10-28T23:04:11.310Z,100694.54
2022-10-28T23:06:39.447Z,100689.70
2022-10-28T23:09:24.592Z,100692.58
2022-10-28T23:11:52.965Z,100693.39
2022-10-28T23:14:20.632Z,100696.98
2022-10-28T23:16:48.965Z,100700.36
2022-10-28T23:19:17.234Z,100704.13
2022-10-28T23:21:44.998Z,100702.89
2022-10-28T23:24:12.613Z,100703.94
2022-10-28T23:26:40.634Z,100702.39
2022-10-28T23:29:26.116Z,100696.70
2022-10-28T23:31:53.856Z,100692.75
2022-10-28T23:34:21.493Z,100696.15
2022-10-28T23:36:54.002Z,100694.02
2022-10-28T23:39:39.343Z,100686.52
2022-10-28T23:42:07.899Z,100692.80
2022-10-28T23:44:35.620Z,100702.36
2022-10-28T23:47:03.732Z,100702.27
2022-10-28T23:49:49.086Z,100701.77
2022-10-28T23:52:34.433Z,100696.45
2022-10-28T23:55:02.256Z,100699.45
2022-10-28T23:57:29.904Z,100693.55
2022-10-28T23:59:57.587Z,100692.95
